Time;durP1;ratioP1;P1;durP2;ratioP2;P2;SDS_P1;SDS_P2;PMS_P1;PMS_P2;Temp;Humidity;BMP_temperature;BMP_pressure;BME280_temperature;BME280_humidity;BME280_pressure;Samples;Min_cycle;Max_cycle;Signal;HPM_P1;HPM_P2
2021/08/16 00:00:21;;;;;;;;;7.25;5.00;;;;;25.93;44.33;100976.13;5077010;28;45382;-49
2021/08/16 00:02:47;;;;;;;;;4.25;4.25;;;;;25.92;44.64;100974.44;5077068;28;45389;-48
2021/08/16 00:05:16;;;;;;;;;4.50;4.50;;;;;25.91;44.36;100968.28;5058599;28;47641;-48
2021/08/16 00:07:42;;;;;;;;;3.25;3.00;;;;;25.91;44.17;100976.25;5076848;28;45724;-49
2021/08/16 00:10:09;;;;;;;;;5.00;5.00;;;;;25.91;44.44;100976.25;5077110;28;45261;-49
2021/08/16 00:12:34;;;;;;;;;5.50;4.50;;;;;25.91;44.55;100978.06;5077109;28;45472;-49
2021/08/16 00:15:00;;;;;;;;;3.00;3.00;;;;;25.89;44.43;100970.22;5076316;27;54475;-49
2021/08/16 00:17:25;;;;;;;;;5.25;5.00;;;;;25.91;44.38;100970.09;5077032;28;45269;-49
2021/08/16 00:19:51;;;;;;;;;9.00;4.00;;;;;25.88;44.00;100973.00;5076865;28;45264;-49
2021/08/16 00:22:17;;;;;;;;;5.00;3.75;;;;;25.90;43.65;100971.91;5076910;28;45660;-49
2021/08/16 00:24:43;;;;;;;;;5.25;5.00;;;;;25.89;43.56;100970.22;5075784;28;45356;-46
2021/08/16 00:27:08;;;;;;;;;5.00;5.00;;;;;25.89;43.63;100967.56;5058318;28;45725;-47
2021/08/16 00:29:34;;;;;;;;;4.00;4.00;;;;;25.89;44.05;100964.91;5076725;28;45355;-50
2021/08/16 00:31:59;;;;;;;;;4.00;4.00;;;;;25.88;43.79;100963.22;5076984;28;45463;-48
2021/08/16 00:34:25;;;;;;;;;8.50;5.50;;;;;25.89;43.39;100969.38;5076824;28;45633;-49
2021/08/16 00:36:51;;;;;;;;;6.00;5.00;;;;;25.89;44.02;100969.38;5076680;27;45293;-48
2021/08/16 00:39:16;;;;;;;;;8.25;6.00;;;;;25.87;43.71;100961.53;5076615;28;45244;-50
2021/08/16 00:41:45;;;;;;;;;4.25;3.75;;;;;25.87;43.54;100964.19;5076713;27;45458;-52
2021/08/16 00:44:12;;;;;;;;;4.50;4.00;;;;;25.87;43.47;100964.19;5076244;28;46652;-52
2021/08/16 00:46:38;;;;;;;;;5.00;3.50;;;;;25.87;43.73;100966.84;5076311;28;45464;-49
2021/08/16 00:49:04;;;;;;;;;2.50;2.50;;;;;25.86;43.21;100959.00;5076648;28;45341;-49
2021/08/16 00:51:33;;;;;;;;;4.25;4.00;;;;;25.86;43.39;100965.13;5077011;27;45606;-50
2021/08/16 00:54:00;;;;;;;;;4.50;3.00;;;;;25.85;43.24;100960.78;5076448;28;46356;-50
2021/08/16 00:56:27;;;;;;;;;4.25;4.25;;;;;25.87;43.53;100966.00;5058118;28;45374;-50
2021/08/16 00:58:56;;;;;;;;;4.00;4.00;;;;;25.84;43.05;100951.16;5076153;28;45261;-48
2021/08/16 01:01:21;;;;;;;;;3.00;3.00;;;;;25.83;43.46;100949.47;5076791;27;45889;-48
2021/08/16 01:03:46;;;;;;;;;3.75;3.25;;;;;25.84;43.08;100943.19;5075965;28;45327;-48
2021/08/16 01:06:12;;;;;;;;;4.75;4.75;;;;;25.84;43.05;100948.50;5076160;28;45343;-51
2021/08/16 01:08:37;;;;;;;;;3.50;3.50;;;;;25.83;42.92;100938.84;5076290;27;45315;-49
2021/08/16 01:11:03;;;;;;;;;4.50;3.50;;;;;25.83;43.10;100938.84;5076454;28;45634;-46
2021/08/16 01:13:28;;;;;;;;;2.50;2.50;;;;;25.82;42.96;100942.47;5058081;28;46262;-49
2021/08/16 01:15:58;;;;;;;;;5.00;4.00;;;;;25.83;42.91;100946.81;5075965;28;45359;-47
2021/08/16 01:18:25;;;;;;;;;4.75;4.00;;;;;25.83;42.85;100961.88;5057906;28;45439;-47
2021/08/16 01:20:55;;;;;;;;;4.00;4.00;;;;;25.83;42.86;100953.91;5076183;28;45529;-47
2021/08/16 01:23:25;;;;;;;;;5.25;4.75;;;;;25.83;42.42;100951.25;5075690;28;45568;-47
2021/08/16 01:25:50;;;;;;;;;4.50;4.00;;;;;25.82;42.56;100945.13;5075907;28;45619;-47
2021/08/16 01:28:18;;;;;;;;;5.25;4.50;;;;;25.83;42.50;100944.16;5075894;28;45568;-49
2021/08/16 01:30:45;;;;;;;;;2.00;2.00;;;;;25.82;42.56;100953.06;5076107;28;45484;-48
2021/08/16 01:33:10;;;;;;;;;3.50;3.00;;;;;25.80;42.35;100949.69;5075583;28;46166;-49
2021/08/16 01:35:36;;;;;;;;;5.25;3.50;;;;;25.81;42.81;100945.22;5075804;28;45375;-47
2021/08/16 01:38:01;;;;;;;;;4.00;2.00;;;;;25.81;42.38;100955.81;5079023;28;45354;-48
2021/08/16 01:40:27;;;;;;;;;5.00;3.00;;;;;25.81;42.42;100956.69;5079487;28;45466;-50
2021/08/16 01:42:52;;;;;;;;;4.75;4.00;;;;;25.80;42.81;100949.69;5078893;28;45375;-48
2021/08/16 01:45:17;;;;;;;;;3.00;3.00;;;;;25.80;42.93;100952.34;5060683;28;53407;-52
2021/08/16 01:47:42;;;;;;;;;2.00;2.00;;;;;25.81;42.80;100955.81;5079116;28;45342;-50
2021/08/16 01:50:08;;;;;;;;;5.00;3.00;;;;;25.79;42.31;100950.66;5079512;27;45604;-51
2021/08/16 01:52:33;;;;;;;;;4.00;2.75;;;;;25.81;42.44;100962.00;5078886;28;46368;-48
2021/08/16 01:54:59;;;;;;;;;2.50;2.50;;;;;25.80;42.13;100954.16;5079278;28;45309;-52
2021/08/16 01:57:25;;;;;;;;;3.75;3.75;;;;;25.79;42.17;100961.25;5079000;27;45390;-51
2021/08/16 01:59:50;;;;;;;;;3.75;3.25;;;;;25.80;42.32;100952.34;5079062;28;45557;-51
2021/08/16 02:02:15;;;;;;;;;3.25;2.00;;;;;25.79;42.18;100961.25;5078702;28;46594;-50
2021/08/16 02:04:41;;;;;;;;;5.25;3.00;;;;;25.79;42.60;100955.97;5078864;27;45324;-51
2021/08/16 02:07:06;;;;;;;;;5.00;4.00;;;;;25.78;42.37;100949.81;5078828;28;45225;-51
2021/08/16 02:09:31;;;;;;;;;2.00;2.00;;;;;25.80;42.37;100954.16;5079340;27;45390;-52
2021/08/16 02:11:57;;;;;;;;;4.00;2.75;;;;;25.78;42.38;100954.25;5078498;28;45657;-49
2021/08/16 02:14:22;;;;;;;;;3.00;2.50;;;;;25.77;42.50;100955.22;5078673;28;45366;-51
2021/08/16 02:16:47;;;;;;;;;2.25;2.00;;;;;25.78;42.38;100954.25;5078789;27;45213;-50
2021/08/16 02:19:13;;;;;;;;;5.00;3.00;;;;;25.78;42.45;100963.09;5078890;28;45557;-47
2021/08/16 02:21:38;;;;;;;;;3.50;2.00;;;;;25.76;42.07;100954.38;5078462;28;46304;-49
2021/08/16 02:24:04;;;;;;;;;2.25;2.25;;;;;25.78;42.16;100952.47;5078791;28;45291;-50
2021/08/16 02:26:30;;;;;;;;;2.00;2.00;;;;;25.78;42.45;100954.25;5060489;28;45424;-48
2021/08/16 02:28:55;;;;;;;;;2.00;2.00;;;;;25.77;42.57;100963.19;5078750;28;46084;-49
2021/08/16 02:31:23;;;;;;;;;3.00;2.00;;;;;25.77;42.25;100953.44;5078430;28;46501;-52
2021/08/16 02:33:50;;;;;;;;;6.50;3.00;;;;;25.78;42.36;100956.91;5078401;27;45793;-48
2021/08/16 02:36:15;;;;;;;;;3.25;3.25;;;;;25.78;42.19;100959.56;5078621;28;45369;-50
2021/08/16 02:38:41;;;;;;;;;2.00;2.00;;;;;25.77;42.13;100958.75;5078625;28;45574;-48
2021/08/16 02:41:06;;;;;;;;;2.25;2.25;;;;;25.77;41.92;100957.88;5078148;28;46295;-48
2021/08/16 02:43:31;;;;;;;;;2.00;2.00;;;;;25.76;42.26;100949.06;5078434;28;45811;-49
2021/08/16 02:45:57;;;;;;;;;5.00;3.25;;;;;25.77;42.05;100955.22;5078438;28;45243;-48
2021/08/16 02:48:22;;;;;;;;;5.00;2.50;;;;;25.76;42.26;100957.03;5077942;27;45240;-49
2021/08/16 02:50:48;;;;;;;;;3.75;3.75;;;;;25.74;41.94;100950.16;5078070;28;45403;-47
2021/08/16 02:53:13;;;;;;;;;4.00;2.00;;;;;25.76;41.75;100959.69;5078097;27;45249;-50
2021/08/16 02:55:38;;;;;;;;;2.75;2.75;;;;;25.75;42.27;100962.44;5078212;27;45308;-48
2021/08/16 02:58:04;;;;;;;;;4.00;2.50;;;;;25.76;41.87;100958.84;5078673;27;45290;-48
2021/08/16 03:00:29;;;;;;;;;2.25;2.25;;;;;25.76;42.37;100945.56;5077623;28;46549;-48
2021/08/16 03:02:54;;;;;;;;;4.50;2.50;;;;;25.75;42.45;100955.34;5077733;28;45620;-48
2021/08/16 03:05:20;;;;;;;;;4.00;3.00;;;;;25.75;42.06;100958.00;5078005;28;45272;-48
2021/08/16 03:07:45;;;;;;;;;2.00;2.00;;;;;25.75;41.71;100952.69;5078100;27;45628;-51
2021/08/16 03:10:11;;;;;;;;;2.75;2.50;;;;;25.73;42.37;100951.97;5077616;28;46319;-51
2021/08/16 03:12:37;;;;;;;;;5.25;3.00;;;;;25.75;42.05;100957.16;5078051;28;45578;-48
2021/08/16 03:15:04;;;;;;;;;3.25;3.00;;;;;25.75;41.95;100954.47;5077641;28;45476;-50
2021/08/16 03:17:29;;;;;;;;;4.50;3.00;;;;;25.74;42.34;100963.44;5077925;27;45592;-48
2021/08/16 03:19:55;;;;;;;;;2.50;2.00;;;;;25.73;42.16;100959.94;5077508;28;45411;-48
2021/08/16 03:22:20;;;;;;;;;3.00;3.00;;;;;25.74;42.29;100958.13;5077466;28;45208;-50
2021/08/16 03:24:45;;;;;;;;;2.50;2.50;;;;;25.74;42.09;100963.44;5077778;28;45302;-51
2021/08/16 03:27:11;;;;;;;;;3.25;3.25;;;;;25.75;42.36;100962.44;5077926;27;45220;-50
2021/08/16 03:29:36;;;;;;;;;3.00;3.00;;;;;25.73;42.31;100959.09;5077729;28;46489;-51
2021/08/16 03:32:02;;;;;;;;;2.00;2.00;;;;;25.74;42.02;100956.31;5077503;28;45436;-51
2021/08/16 03:34:28;;;;;;;;;4.25;2.25;;;;;25.70;42.33;100944.22;5077630;28;45443;-52
2021/08/16 03:36:53;;;;;;;;;3.25;1.25;;;;;25.72;42.70;100944.97;5077713;28;45528;-50
2021/08/16 03:39:19;;;;;;;;;3.00;3.00;;;;;25.72;42.44;100950.25;5077337;28;45580;-51
2021/08/16 03:41:44;;;;;;;;;3.50;2.00;;;;;25.72;42.40;100946.78;5077246;28;45563;-52
2021/08/16 03:44:10;;;;;;;;;3.00;3.00;;;;;25.72;42.79;100955.56;5077217;28;45299;-51
2021/08/16 03:46:35;;;;;;;;;4.00;1.25;;;;;25.72;42.42;100955.56;5077891;28;45425;-50
2021/08/16 03:49:00;;;;;;;;;6.00;4.00;;;;;25.72;42.85;100950.25;5077095;27;45274;-50
2021/08/16 03:51:26;;;;;;;;;4.25;3.00;;;;;25.72;42.57;100952.09;5077123;28;45358;-49
2021/08/16 03:53:51;;;;;;;;;4.00;3.25;;;;;25.72;42.51;100946.78;5077222;28;45385;-49
2021/08/16 03:56:17;;;;;;;;;4.25;3.50;;;;;25.71;42.28;100945.91;5077292;27;45299;-49
2021/08/16 03:58:42;;;;;;;;;2.50;2.25;;;;;25.71;42.57;100950.41;5076347;28;45630;-48
2021/08/16 04:01:11;;;;;;;;;2.50;2.50;;;;;25.72;42.21;100952.09;5076917;28;45317;-52
2021/08/16 04:03:39;;;;;;;;;3.75;2.75;;;;;25.71;42.19;100950.41;5077340;28;45383;-48
2021/08/16 04:06:05;;;;;;;;;5.50;3.50;;;;;25.70;42.39;100943.38;5077304;28;45458;-50
2021/08/16 04:08:30;;;;;;;;;4.75;3.00;;;;;25.70;42.78;100951.34;5076620;28;45457;-49
2021/08/16 04:10:55;;;;;;;;;4.25;3.00;;;;;25.70;42.94;100948.69;5076971;27;45418;-49
2021/08/16 04:13:21;;;;;;;;;3.50;2.00;;;;;25.67;42.61;100948.91;5077037;28;45374;-49
2021/08/16 04:15:46;;;;;;;;;4.25;3.00;;;;;25.60;42.42;100960.00;5077230;27;45418;-48
2021/08/16 04:18:11;;;;;;;;;2.50;2.50;;;;;25.54;42.72;100955.16;5076740;28;45333;-49
2021/08/16 04:20:37;;;;;;;;;5.00;4.00;;;;;25.49;41.97;100956.47;5076977;28;45442;-47
2021/08/16 04:23:02;;;;;;;;;2.25;2.25;;;;;25.41;42.55;100957.06;5076875;28;45849;-48
2021/08/16 04:25:28;;;;;;;;;4.00;3.25;;;;;25.39;42.80;100959.78;5076968;28;45308;-50
2021/08/16 04:27:53;;;;;;;;;4.75;2.75;;;;;25.35;42.12;100954.81;5076595;27;46179;-49
2021/08/16 04:30:19;;;;;;;;;4.00;2.75;;;;;25.32;42.84;100959.38;5076567;28;45367;-48
2021/08/16 04:32:45;;;;;;;;;3.00;2.00;;;;;25.28;42.24;100954.41;5076754;28;45324;-52
2021/08/16 04:35:10;;;;;;;;;5.50;2.25;;;;;25.27;42.18;100958.88;5077123;28;45487;-48
2021/08/16 04:37:38;;;;;;;;;3.25;2.25;;;;;25.25;42.94;100958.16;5076415;28;46797;-49
2021/08/16 04:40:04;;;;;;;;;4.25;2.25;;;;;25.23;42.35;100952.09;5076360;27;45884;-47
2021/08/16 04:42:30;;;;;;;;;5.50;2.50;;;;;25.21;42.38;100959.31;5075595;27;45353;-47
2021/08/16 04:44:55;;;;;;;;;2.00;2.00;;;;;25.18;42.08;100956.91;5076765;28;45450;-48
2021/08/16 04:47:20;;;;;;;;;3.00;2.75;;;;;25.15;42.35;100954.47;5076392;28;45466;-52
2021/08/16 04:49:46;;;;;;;;;5.00;2.25;;;;;25.12;42.27;100954.69;5076359;28;45473;-48
2021/08/16 04:52:11;;;;;;;;;3.75;3.75;;;;;25.10;42.71;100960.13;5076825;28;45315;-51
2021/08/16 04:54:36;;;;;;;;;2.25;2.00;;;;;25.08;42.61;100962.03;5076653;28;45319;-47
2021/08/16 04:57:02;;;;;;;;;4.75;3.75;;;;;25.07;42.58;100957.69;5076167;28;45438;-51
2021/08/16 04:59:27;;;;;;;;;3.00;3.00;;;;;25.06;42.73;100953.34;5076125;27;45573;-51
2021/08/16 05:01:53;;;;;;;;;3.00;2.25;;;;;25.03;42.68;100952.72;5076051;28;48985;-50
2021/08/16 05:04:18;;;;;;;;;3.00;2.00;;;;;25.05;42.23;100964.06;5076596;28;45349;-47
2021/08/16 05:06:44;;;;;;;;;2.00;1.00;;;;;25.04;42.56;100965.84;5076019;28;47216;-49
2021/08/16 05:09:10;;;;;;;;;3.00;3.00;;;;;25.04;42.74;100962.38;5076324;28;45319;-47
2021/08/16 05:11:36;;;;;;;;;2.00;2.00;;;;;25.03;42.32;100968.63;5078547;28;45456;-48
2021/08/16 05:14:01;;;;;;;;;4.00;2.50;;;;;25.00;42.14;100970.53;5079951;27;45545;-48
2021/08/16 05:16:27;;;;;;;;;2.25;2.25;;;;;24.98;42.14;100969.81;5079482;28;45586;-49
2021/08/16 05:18:53;;;;;;;;;2.25;2.25;;;;;24.94;42.50;100968.34;5079483;28;45243;-49
2021/08/16 05:21:20;;;;;;;;;1.00;1.00;;;;;24.94;42.62;100972.78;5079803;28;45362;-49
2021/08/16 05:23:46;;;;;;;;;2.00;2.00;;;;;24.92;42.56;100978.22;5079720;28;45534;-49
2021/08/16 05:26:11;;;;;;;;;2.25;2.25;;;;;24.92;42.89;100978.22;5079739;28;45511;-50
2021/08/16 05:28:36;;;;;;;;;2.50;2.50;;;;;24.90;42.62;100976.63;5079337;28;45406;-49
2021/08/16 05:31:02;;;;;;;;;1.00;1.00;;;;;24.88;42.37;100989.97;5079623;27;46104;-48
2021/08/16 05:33:27;;;;;;;;;1.75;1.75;;;;;24.85;42.32;100983.09;5079624;28;45320;-50
2021/08/16 05:35:53;;;;;;;;;4.00;2.25;;;;;24.84;42.83;100983.22;5079102;28;45391;-51
2021/08/16 05:38:18;;;;;;;;;1.00;1.00;;;;;24.85;42.78;100987.56;5079134;27;45516;-51
2021/08/16 05:40:43;;;;;;;;;3.00;1.00;;;;;24.83;42.16;100992.97;5079701;28;45280;-51
2021/08/16 05:43:09;;;;;;;;;1.25;1.25;;;;;24.82;42.84;101003.69;5079444;28;45489;-50
2021/08/16 05:45:34;;;;;;;;;1.25;1.00;;;;;24.80;42.88;101001.16;5079041;28;45577;-49
2021/08/16 05:47:59;;;;;;;;;2.00;2.00;;;;;24.80;42.54;101006.47;5079297;27;45477;-53
2021/08/16 05:50:25;;;;;;;;;3.00;1.25;;;;;24.80;42.48;101008.25;5079283;27;45317;-53
2021/08/16 05:52:52;;;;;;;;;1.75;1.75;;;;;24.79;42.81;101001.25;5079304;28;45530;-49
2021/08/16 05:55:17;;;;;;;;;4.00;1.75;;;;;24.79;42.59;101004.75;5078923;28;45705;-50
2021/08/16 05:57:43;;;;;;;;;6.75;3.25;;;;;24.78;42.25;100991.59;5061033;28;45309;-48
2021/08/16 06:00:09;;;;;;;;;3.00;1.00;;;;;24.77;42.54;100997.84;5079023;28;45485;-49
2021/08/16 06:02:35;;;;;;;;;2.50;2.00;;;;;24.74;42.46;101000.75;5078835;28;45636;-49
2021/08/16 06:05:01;;;;;;;;;2.00;2.00;;;;;24.75;43.07;101018.34;5078717;28;45429;-50
2021/08/16 06:07:27;;;;;;;;;2.25;2.25;;;;;24.73;42.38;101010.47;5078973;28;45488;-49
2021/08/16 06:09:53;;;;;;;;;3.00;2.25;;;;;24.72;42.71;101013.25;5078822;28;45382;-49
2021/08/16 06:12:18;;;;;;;;;3.00;2.00;;;;;24.70;42.67;101011.56;5079008;28;45299;-50
2021/08/16 06:14:43;;;;;;;;;2.00;1.50;;;;;24.70;42.38;101008.91;5078902;27;45253;-48
2021/08/16 06:17:09;;;;;;;;;2.50;1.75;;;;;24.70;42.84;101013.34;5078619;28;45408;-48
2021/08/16 06:19:35;;;;;;;;;2.75;1.50;;;;;24.68;43.03;101012.59;5078873;28;45374;-52
2021/08/16 06:22:02;;;;;;;;;3.00;1.00;;;;;24.66;43.11;101012.69;5077992;28;45232;-48
2021/08/16 06:24:27;;;;;;;;;3.00;1.25;;;;;24.65;42.75;101008.34;5078174;28;47174;-50
2021/08/16 06:26:53;;;;;;;;;2.00;2.00;;;;;24.64;43.07;101013.75;5060394;28;45641;-49
2021/08/16 06:29:18;;;;;;;;;3.00;2.50;;;;;24.64;42.64;101009.28;5078775;28;45564;-49
2021/08/16 06:31:43;;;;;;;;;1.50;1.50;;;;;24.63;42.76;101007.63;5078998;28;45304;-49
2021/08/16 06:34:11;;;;;;;;;2.00;2.00;;;;;24.62;42.85;101016.53;5078234;28;46269;-49
2021/08/16 06:36:39;;;;;;;;;2.00;2.00;;;;;24.62;43.16;101013.88;5078201;28;45362;-49
2021/08/16 06:39:09;;;;;;;;;4.00;2.00;;;;;24.62;43.13;101016.53;5078373;28;45276;-49
2021/08/16 06:41:35;;;;;;;;;2.00;2.00;;;;;24.63;43.17;101023.53;5078488;28;45592;-48
2021/08/16 06:44:00;;;;;;;;;4.75;3.00;;;;;24.63;43.28;101028.81;5078047;28;46149;-53
2021/08/16 06:46:26;;;;;;;;;3.50;1.25;;;;;24.64;43.16;101032.31;5078191;28;45330;-49
2021/08/16 06:48:51;;;;;;;;;2.25;1.00;;;;;24.65;42.99;101037.50;5078187;28;45584;-50
2021/08/16 06:51:16;;;;;;;;;2.00;2.00;;;;;24.65;43.05;101039.31;5078627;27;45422;-49
2021/08/16 06:53:42;;;;;;;;;2.25;2.25;;;;;24.66;43.55;101041.84;5077902;28;46191;-49
2021/08/16 06:56:07;;;;;;;;;2.00;2.00;;;;;24.65;43.51;101037.50;5078035;27;45318;-49
2021/08/16 06:58:33;;;;;;;;;1.75;1.75;;;;;24.63;43.19;101033.25;5077986;27;45326;-51
2021/08/16 07:01:00;;;;;;;;;1.25;1.25;;;;;24.61;43.30;101030.72;5078275;27;45335;-48
2021/08/16 07:03:27;;;;;;;;;3.50;3.50;;;;;24.60;43.75;101038.75;5077776;28;47399;-48
2021/08/16 07:05:53;;;;;;;;;1.00;1.00;;;;;24.58;43.69;101035.41;5077825;28;45608;-50
2021/08/16 07:08:18;;;;;;;;;3.50;1.25;;;;;24.59;43.78;101042.38;5078333;28;45440;-50
2021/08/16 07:10:43;;;;;;;;;1.00;1.00;;;;;24.60;43.80;101034.34;5078028;28;45166;-52
2021/08/16 07:13:09;;;;;;;;;1.00;1.00;;;;;24.60;43.56;101034.34;5059423;28;46209;-48
2021/08/16 07:15:35;;;;;;;;;1.00;1.00;;;;;24.59;43.53;101047.66;5077863;28;45493;-49
2021/08/16 07:18:02;;;;;;;;;0.75;0.50;;;;;24.55;43.93;101053.19;5077837;28;45483;-49
2021/08/16 07:20:29;;;;;;;;;1.75;1.75;;;;;24.52;43.86;101057.88;5077860;28;45305;-50
2021/08/16 07:22:54;;;;;;;;;1.00;1.00;;;;;24.50;44.21;101046.53;5077395;27;47026;-51
2021/08/16 07:25:20;;;;;;;;;1.00;1.00;;;;;24.47;44.89;101050.25;5077977;27;45309;-49
2021/08/16 07:27:45;;;;;;;;;1.25;1.25;;;;;24.43;44.59;101050.53;5077881;28;45382;-51
2021/08/16 07:30:11;;;;;;;;;3.75;2.25;;;;;24.39;45.26;101053.41;5077903;27;45580;-51
2021/08/16 07:32:36;;;;;;;;;0.50;0.50;;;;;24.35;44.92;101054.56;5077347;28;46424;-48
2021/08/16 07:35:02;;;;;;;;;1.75;1.75;;;;;24.32;45.23;101057.41;5077168;28;47945;-48
2021/08/16 07:37:27;;;;;;;;;3.25;1.00;;;;;24.32;45.40;101060.06;5077522;28;45295;-51
2021/08/16 07:39:53;;;;;;;;;2.75;1.75;;;;;24.28;45.76;101060.38;5077699;27;45572;-48
2021/08/16 07:42:23;;;;;;;;;2.50;1.00;;;;;24.25;45.66;101064.09;5077479;28;46325;-50
2021/08/16 07:44:51;;;;;;;;;1.00;1.00;;;;;24.22;46.12;101062.50;5060270;28;45372;-52
2021/08/16 07:47:17;;;;;;;;;1.00;1.00;;;;;24.19;46.31;101057.41;5077535;28;45849;-51
2021/08/16 07:49:42;;;;;;;;;1.00;1.00;;;;;24.18;45.64;101070.75;5077568;27;45190;-51
2021/08/16 07:52:07;;;;;;;;;2.00;0.50;;;;;24.16;45.90;101067.38;5077145;28;46539;-51
2021/08/16 07:54:32;;;;;;;;;2.75;1.50;;;;;24.12;46.03;101064.06;5077043;28;45208;-55
2021/08/16 07:56:58;;;;;;;;;3.00;1.25;;;;;24.09;46.01;101070.41;5077302;28;45338;-47
2021/08/16 07:59:23;;;;;;;;;0.00;0.00;;;;;24.07;46.02;101068.81;5077219;28;45297;-49
2021/08/16 08:01:50;;;;;;;;;0.00;0.00;;;;;24.03;46.02;101060.25;5076870;28;46902;-51
2021/08/16 08:04:17;;;;;;;;;1.75;1.75;;;;;24.06;46.07;101059.19;5076879;27;45464;-51
2021/08/16 08:06:42;;;;;;;;;2.00;1.00;;;;;24.01;46.45;101066.59;5077168;28;45425;-51
2021/08/16 08:09:07;;;;;;;;;1.00;1.00;;;;;24.01;46.17;101069.25;5077469;28;45445;-51
2021/08/16 08:11:32;;;;;;;;;2.00;2.00;;;;;23.99;46.26;101065.84;5076864;28;45500;-49
2021/08/16 08:13:58;;;;;;;;;1.00;0.75;;;;;23.99;46.05;101071.13;5076899;28;45350;-49
2021/08/16 08:16:23;;;;;;;;;1.00;1.00;;;;;23.99;46.30;101066.69;5077103;28;45313;-50
2021/08/16 08:18:49;;;;;;;;;1.00;1.00;;;;;24.00;46.08;101067.53;5077419;28;45568;-50
2021/08/16 08:21:14;;;;;;;;;0.25;0.25;;;;;23.99;46.24;101064.03;5076718;28;46356;-48
2021/08/16 08:23:39;;;;;;;;;2.25;2.25;;;;;23.99;46.37;101068.50;5076528;28;45344;-50
2021/08/16 08:26:05;;;;;;;;;1.75;1.75;;;;;23.98;46.78;101070.28;5076900;27;45433;-47
2021/08/16 08:28:31;;;;;;;;;0.00;0.00;;;;;23.98;46.56;101080.03;5076843;28;45540;-48
2021/08/16 08:30:56;;;;;;;;;1.00;1.00;;;;;23.98;46.58;101082.69;5076586;28;45333;-47
2021/08/16 08:33:22;;;;;;;;;1.00;1.00;;;;;23.98;46.79;101080.88;5058599;28;45705;-50
2021/08/16 08:35:48;;;;;;;;;2.25;1.00;;;;;23.95;46.59;101086.38;5076633;28;45351;-51
2021/08/16 08:38:15;;;;;;;;;3.00;1.00;;;;;23.94;46.62;101085.50;5076873;28;45217;-51
2021/08/16 08:40:41;;;;;;;;;3.00;3.00;;;;;23.91;46.58;101085.72;5076433;28;45433;-51
2021/08/16 08:43:14;;;;;;;;;3.25;2.50;;;;;23.92;46.94;101086.53;5076275;28;46032;-49
2021/08/16 08:45:41;;;;;;;;;4.00;4.00;;;;;23.95;46.78;101083.75;5077452;27;45274;-47
2021/08/16 08:48:06;;;;;;;;;3.25;3.25;;;;;23.98;46.81;101086.16;5080354;28;45369;-47
2021/08/16 08:50:31;;;;;;;;;2.50;2.00;;;;;24.01;46.65;101090.44;5079893;27;45443;-54
2021/08/16 08:52:59;;;;;;;;;4.50;3.00;;;;;24.03;46.96;101093.81;5080034;28;45410;-51
2021/08/16 08:55:25;;;;;;;;;3.75;1.75;;;;;24.06;46.83;101093.59;5080439;28;45408;-48
2021/08/16 08:57:50;;;;;;;;;3.25;2.00;;;;;24.10;46.56;101095.09;5080411;27;45397;-49
2021/08/16 09:00:18;;;;;;;;;3.50;3.00;;;;;24.16;46.49;101097.31;5079387;28;45553;-47
2021/08/16 09:02:55;;;;;;;;;2.25;2.00;;;;;24.23;46.67;101100.41;5079776;28;45735;-49
2021/08/16 09:05:21;;;;;;;;;1.75;1.50;;;;;24.28;46.75;101103.63;5062099;28;45874;-49
2021/08/16 09:07:46;;;;;;;;;4.75;3.25;;;;;24.33;46.37;101098.00;5080144;28;45529;-49
2021/08/16 09:10:16;;;;;;;;;3.00;2.25;;;;;24.38;46.34;101107.34;5078444;28;47046;-51
2021/08/16 09:12:43;;;;;;;;;2.00;2.00;;;;;24.41;46.00;101108.09;5079632;28;45169;-49
2021/08/16 09:15:20;;;;;;;;;1.75;1.75;;;;;24.45;46.11;101114.84;5079777;28;45311;-48
2021/08/16 09:17:46;;;;;;;;;1.00;1.00;;;;;24.49;46.05;101116.38;5079837;28;45378;-52
2021/08/16 09:20:20;;;;;;;;;2.00;2.00;;;;;24.52;46.25;101110.88;5079527;28;45668;-48
2021/08/16 09:23:07;;;;;;;;;3.00;2.00;;;;;24.56;46.43;101112.34;5079325;27;45678;-47
2021/08/16 09:25:38;;;;;;;;;2.75;1.75;;;;;24.59;46.21;101116.56;5079726;28;45430;-47
2021/08/16 09:28:05;;;;;;;;;2.00;2.00;;;;;24.61;46.37;101128.78;5079595;28;45231;-51
2021/08/16 09:30:34;;;;;;;;;1.00;1.00;;;;;24.64;45.99;101125.06;5079328;27;45560;-50
2021/08/16 09:33:13;;;;;;;;;1.75;1.75;;;;;24.65;46.34;101129.41;5079278;28;45371;-47
2021/08/16 09:35:59;;;;;;;;;1.50;1.50;;;;;24.68;46.37;101132.72;5079472;28;45263;-49
2021/08/16 09:38:35;;;;;;;;;1.00;1.00;;;;;24.70;46.49;101122.00;5080035;28;45314;-50
2021/08/16 09:41:01;;;;;;;;;2.00;2.00;;;;;24.72;46.15;101127.22;5079192;27;45430;-50
2021/08/16 09:43:28;;;;;;;;;1.00;1.00;;;;;24.75;46.30;101146.41;5079515;27;45342;-50
2021/08/16 09:45:54;;;;;;;;;1.75;1.75;;;;;24.77;46.22;101146.28;5079730;28;45334;-48
2021/08/16 09:48:22;;;;;;;;;1.25;1.00;;;;;24.79;46.64;101139.09;5079281;28;45494;-49
2021/08/16 09:50:50;;;;;;;;;1.00;1.00;;;;;24.80;46.11;101140.78;5079037;28;45708;-52
2021/08/16 09:53:18;;;;;;;;;1.50;1.50;;;;;24.80;46.11;101146.97;5078982;28;45747;-49
2021/08/16 09:55:49;;;;;;;;;2.75;1.00;;;;;24.81;46.33;101145.13;5079188;28;45429;-51
2021/08/16 09:58:15;;;;;;;;;2.00;2.00;;;;;24.79;46.31;101149.69;5078015;28;45263;-49
2021/08/16 10:00:43;;;;;;;;;1.75;1.75;;;;;24.78;46.11;101140.03;5060544;28;47566;-47
2021/08/16 10:03:11;;;;;;;;;2.00;1.00;;;;;24.76;46.48;101149.91;5078514;27;45738;-49
2021/08/16 10:05:38;;;;;;;;;1.00;1.00;;;;;24.73;46.05;101140.34;5060802;28;45342;-51
2021/08/16 10:08:07;;;;;;;;;3.00;1.00;;;;;24.73;46.36;101137.72;5076696;28;45533;-49
2021/08/16 10:10:34;;;;;;;;;1.00;1.00;;;;;24.77;46.46;101146.28;5076553;28;46708;-45
2021/08/16 10:13:01;;;;;;;;;1.50;1.50;;;;;24.78;46.64;101142.69;5078255;28;45777;-50
2021/08/16 10:15:28;;;;;;;;;3.00;3.00;;;;;24.78;46.38;101143.56;5078040;28;45303;-48
2021/08/16 10:17:53;;;;;;;;;2.50;2.50;;;;;24.78;46.19;101166.53;5076077;28;45220;-49
2021/08/16 10:20:19;;;;;;;;;3.50;3.50;;;;;24.75;46.70;101159.66;5068140;28;46336;-48
2021/08/16 10:22:45;;;;;;;;;4.50;4.50;;;;;24.72;46.74;101159.03;5065828;28;45656;-51
2021/08/16 10:25:16;;;;;;;;;2.00;2.00;;;;;24.69;47.82;101166.22;5077820;28;45328;-53
2021/08/16 10:27:42;;;;;;;;;2.00;2.00;;;;;24.69;48.19;101171.53;5078144;28;45379;-53
2021/08/16 10:30:16;;;;;;;;;2.00;2.00;;;;;24.64;48.19;101167.47;5077921;28;46315;-55
2021/08/16 10:32:43;;;;;;;;;1.00;1.00;;;;;24.66;48.04;101170.88;5078011;28;45340;-51
2021/08/16 10:35:14;;;;;;;;;2.00;2.00;;;;;24.63;48.63;101184.31;5059650;28;45371;-50
2021/08/16 10:37:44;;;;;;;;;3.50;2.50;;;;;24.59;48.22;101177.50;5077124;28;45884;-51
2021/08/16 10:40:37;;;;;;;;;2.50;2.50;;;;;24.61;49.04;101183.56;5074915;28;45381;-52
2021/08/16 10:43:08;;;;;;;;;2.00;2.00;;;;;24.59;48.78;101186.34;5075749;28;45435;-53
2021/08/16 10:45:47;;;;;;;;;2.00;2.00;;;;;24.59;48.43;101188.97;5077871;28;45371;-52
2021/08/16 10:48:21;;;;;;;;;4.00;2.00;;;;;24.57;48.46;101196.19;5077961;28;45371;-54
2021/08/16 10:50:46;;;;;;;;;2.25;2.25;;;;;24.58;48.36;101189.94;5077294;28;45358;-56
2021/08/16 10:53:11;;;;;;;;;2.00;2.00;;;;;24.57;48.70;101188.22;5077401;28;45243;-52
2021/08/16 10:55:39;;;;;;;;;2.25;2.25;;;;;24.58;48.28;101197.03;5077653;28;45295;-55
2021/08/16 10:58:07;;;;;;;;;2.50;2.25;;;;;24.58;48.45;101202.34;5077693;28;45319;-49
2021/08/16 11:00:32;;;;;;;;;2.75;2.75;;;;;24.59;48.06;101196.06;5077182;28;46335;-54
2021/08/16 11:02:58;;;;;;;;;2.00;2.00;;;;;24.58;47.97;101197.03;5077462;28;45482;-55
2021/08/16 11:05:39;;;;;;;;;3.00;1.50;;;;;24.58;48.18;101197.88;5058976;28;45417;-52
2021/08/16 11:08:07;;;;;;;;;3.00;2.75;;;;;24.58;48.54;101211.13;5077266;27;45588;-55
2021/08/16 11:10:38;;;;;;;;;3.00;2.00;;;;;24.57;47.56;101205.94;5077205;28;46372;-52
2021/08/16 11:13:18;;;;;;;;;2.00;2.00;;;;;24.56;47.68;101218.31;5077145;28;45634;-53
2021/08/16 11:15:45;;;;;;;;;3.00;3.00;;;;;24.52;47.29;101224.81;5077274;28;45382;-53
2021/08/16 11:18:19;;;;;;;;;3.50;2.25;;;;;24.52;46.43;101224.81;5077558;28;45585;-52
2021/08/16 11:20:55;;;;;;;;;3.00;3.00;;;;;24.49;46.55;101228.47;5077452;28;46530;-51